createdAt,value
2019-01-14T00:01:52.698Z,7.10
2019-01-14T00:04:21.865Z,6.89
2019-01-14T00:06:50.928Z,6.90
2019-01-14T00:09:23.427Z,6.92
2019-01-14T00:11:51.114Z,6.85
2019-01-14T00:14:20.190Z,6.83
2019-01-14T00:16:49.381Z,6.71
2019-01-14T00:19:18.507Z,6.85
2019-01-14T00:21:47.629Z,6.78
2019-01-14T00:24:16.702Z,6.85
2019-01-14T00:26:45.760Z,6.71
2019-01-14T00:29:14.786Z,6.56
2019-01-14T00:31:43.829Z,6.68
2019-01-14T00:34:13.194Z,6.57
2019-01-14T00:36:42.328Z,6.51
2019-01-14T00:39:11.394Z,6.51
2019-01-14T00:41:40.487Z,6.61
2019-01-14T00:44:09.618Z,6.56
2019-01-14T00:46:38.645Z,6.58
2019-01-14T00:49:07.943Z,6.55
2019-01-14T00:51:37.175Z,6.57
2019-01-14T00:54:08.071Z,6.46
2019-01-14T00:56:37.140Z,6.39
2019-01-14T00:59:06.121Z,6.44
2019-01-14T01:01:35.334Z,6.42
2019-01-14T01:04:04.445Z,6.41
2019-01-14T01:06:33.630Z,6.36
2019-01-14T01:09:03.022Z,6.28
2019-01-14T01:11:32.142Z,6.25
2019-01-14T01:14:01.183Z,6.29
2019-01-14T01:16:32.670Z,6.32
2019-01-14T01:19:02.047Z,6.22
2019-01-14T01:21:31.252Z,6.06
2019-01-14T01:24:00.340Z,6.07
2019-01-14T01:26:30.139Z,5.90
2019-01-14T01:28:59.235Z,5.73
2019-01-14T01:31:28.615Z,5.63
2019-01-14T01:33:59.378Z,5.65
2019-01-14T01:36:31.932Z,5.68
2019-01-14T01:38:59.436Z,5.71
2019-01-14T01:41:28.704Z,5.47
2019-01-14T01:43:58.218Z,5.40
2019-01-14T01:46:27.267Z,5.34
2019-01-14T01:48:56.342Z,5.20
2019-01-14T01:51:25.386Z,4.89
2019-01-14T01:53:54.407Z,4.56
2019-01-14T01:56:23.479Z,4.79
2019-01-14T01:58:52.533Z,4.87
2019-01-14T02:01:22.695Z,4.85
2019-01-14T02:03:51.729Z,4.86
2019-01-14T02:06:21.120Z,4.89
2019-01-14T02:08:54.393Z,4.91
2019-01-14T02:11:25.769Z,4.69
2019-01-14T02:13:56.309Z,4.65
2019-01-14T02:16:25.330Z,4.75
2019-01-14T02:18:55.568Z,4.59
2019-01-14T02:21:24.623Z,4.64
2019-01-14T02:23:53.678Z,4.64
2019-01-14T02:26:22.715Z,4.58
2019-01-14T02:28:51.783Z,4.64
2019-01-14T02:31:20.873Z,4.48
2019-01-14T02:33:50.034Z,4.26
2019-01-14T02:36:19.072Z,4.41
2019-01-14T02:38:48.282Z,4.52
2019-01-14T02:41:17.401Z,4.82
2019-01-14T02:43:46.448Z,4.84
2019-01-14T02:46:15.518Z,5.01
2019-01-14T02:48:46.475Z,5.23
2019-01-14T02:51:16.640Z,4.87
2019-01-14T02:53:45.721Z,4.91
2019-01-14T02:56:14.700Z,4.91
2019-01-14T02:58:43.797Z,5.07
2019-01-14T03:01:12.818Z,4.88
2019-01-14T03:03:41.869Z,4.90
2019-01-14T03:06:10.946Z,4.78
2019-01-14T03:08:40.060Z,5.23
2019-01-14T03:11:09.273Z,5.27
2019-01-14T03:13:38.366Z,5.13
2019-01-14T03:16:07.576Z,5.16
2019-01-14T03:18:37.337Z,5.37
2019-01-14T03:21:06.398Z,5.49
2019-01-14T03:23:35.502Z,5.53
2019-01-14T03:26:04.546Z,5.64
2019-01-14T03:28:33.607Z,5.67
2019-01-14T03:31:02.692Z,5.69
2019-01-14T03:33:35.825Z,5.67
2019-01-14T03:36:04.961Z,5.76
2019-01-14T03:38:34.022Z,5.95
2019-01-14T03:41:03.158Z,5.93
2019-01-14T03:43:33.479Z,5.83
2019-01-14T03:46:02.677Z,5.92
2019-01-14T03:48:31.752Z,6.01
2019-01-14T03:51:00.837Z,6.03
2019-01-14T03:53:29.924Z,6.01
2019-01-14T03:55:58.981Z,6.06
2019-01-14T03:58:28.014Z,6.02
2019-01-14T04:00:57.117Z,5.99
2019-01-14T04:03:26.143Z,5.92
2019-01-14T04:05:55.460Z,5.97
2019-01-14T04:08:24.518Z,6.01
2019-01-14T04:10:53.583Z,6.00
2019-01-14T04:13:22.852Z,6.02
2019-01-14T04:15:51.938Z,5.93
2019-01-14T04:18:21.051Z,6.03
2019-01-14T04:20:50.080Z,6.25
2019-01-14T04:23:19.165Z,6.04
2019-01-14T04:25:50.671Z,5.93
2019-01-14T04:28:19.734Z,6.02
2019-01-14T04:30:48.776Z,6.00
2019-01-14T04:33:17.860Z,5.90
2019-01-14T04:35:46.886Z,5.92
2019-01-14T04:38:15.974Z,5.84
2019-01-14T04:40:45.007Z,5.85
2019-01-14T04:43:14.112Z,5.77
2019-01-14T04:45:43.171Z,5.62
2019-01-14T04:48:12.171Z,5.59
2019-01-14T04:50:41.161Z,5.58
2019-01-14T04:53:10.300Z,5.56
2019-01-14T04:55:39.325Z,5.57
2019-01-14T04:58:08.517Z,5.49
2019-01-14T05:00:37.486Z,5.39
2019-01-14T05:03:06.547Z,5.45
2019-01-14T05:05:35.591Z,5.57
2019-01-14T05:08:04.693Z,5.58
2019-01-14T05:10:33.826Z,5.54
2019-01-14T05:13:02.917Z,5.43
2019-01-14T05:15:31.979Z,5.48
2019-01-14T05:18:01.093Z,5.58
2019-01-14T05:20:30.149Z,5.50
2019-01-14T05:22:59.187Z,5.51
2019-01-14T05:25:28.256Z,5.52
2019-01-14T05:27:57.245Z,5.49
2019-01-14T05:30:26.319Z,5.54
2019-01-14T05:32:55.410Z,5.45
2019-01-14T05:35:24.482Z,5.51
2019-01-14T05:37:53.532Z,5.51
2019-01-14T05:40:24.751Z,5.47
2019-01-14T05:42:53.798Z,5.41
2019-01-14T05:45:22.845Z,5.34
2019-01-14T05:47:51.853Z,5.28
2019-01-14T05:50:20.951Z,5.37
2019-01-14T05:52:50.044Z,5.28
2019-01-14T05:55:19.059Z,5.14
2019-01-14T05:57:49.072Z,5.31
2019-01-14T06:00:24.088Z,5.33
2019-01-14T06:02:54.389Z,5.23
2019-01-14T06:05:23.461Z,5.18
2019-01-14T06:07:52.500Z,5.11
2019-01-14T06:10:21.535Z,5.07
2019-01-14T06:12:53.251Z,5.15
2019-01-14T06:15:22.630Z,5.17
2019-01-14T06:17:54.058Z,5.09
2019-01-14T06:20:25.016Z,4.93
2019-01-14T06:22:55.531Z,5.04
2019-01-14T06:25:24.625Z,5.07
2019-01-14T06:27:53.610Z,5.03
2019-01-14T06:30:24.817Z,5.07
2019-01-14T06:32:53.844Z,5.07
2019-01-14T06:35:23.984Z,4.97
2019-01-14T06:37:53.030Z,5.03
2019-01-14T06:40:22.132Z,4.95
2019-01-14T06:42:53.840Z,4.93
2019-01-14T06:45:23.995Z,4.79
2019-01-14T06:47:52.980Z,4.79
2019-01-14T06:50:25.166Z,4.66
2019-01-14T06:52:54.677Z,4.67
2019-01-14T06:55:23.734Z,4.59
2019-01-14T06:57:52.758Z,4.66
2019-01-14T07:00:26.545Z,4.56
2019-01-14T07:02:55.617Z,4.67
2019-01-14T07:05:24.738Z,4.57
2019-01-14T07:07:59.509Z,4.56
2019-01-14T07:10:29.855Z,4.64
2019-01-14T07:12:58.952Z,4.85
2019-01-14T07:15:28.078Z,4.83
2019-01-14T07:17:57.173Z,5.06
2019-01-14T07:20:26.248Z,5.16
2019-01-14T07:22:55.304Z,5.10
2019-01-14T07:25:24.282Z,4.96
2019-01-14T07:27:53.359Z,5.13
2019-01-14T07:30:22.716Z,5.09
2019-01-14T07:32:51.778Z,5.09
2019-01-14T07:35:20.824Z,5.12
2019-01-14T07:37:50.073Z,5.08
2019-01-14T07:40:19.423Z,5.10
2019-01-14T07:42:48.602Z,5.08
2019-01-14T07:45:18.531Z,5.10
2019-01-14T07:47:47.610Z,5.07
2019-01-14T07:50:17.339Z,5.13
2019-01-14T07:52:46.456Z,5.16
2019-01-14T07:55:15.575Z,5.17
2019-01-14T07:57:44.665Z,5.33
2019-01-14T08:00:23.293Z,5.37
2019-01-14T08:02:52.456Z,5.47
2019-01-14T08:05:21.435Z,5.39
2019-01-14T08:07:50.644Z,5.36
2019-01-14T08:10:19.654Z,5.45
2019-01-14T08:12:50.606Z,5.43
2019-01-14T08:15:21.261Z,5.37
2019-01-14T08:17:50.422Z,5.44
2019-01-14T08:20:19.502Z,5.44
2019-01-14T08:22:48.718Z,5.36
2019-01-14T08:25:17.756Z,5.29
2019-01-14T08:27:51.579Z,5.32
2019-01-14T08:30:25.209Z,5.27
2019-01-14T08:32:56.613Z,5.47
2019-01-14T08:35:25.688Z,5.47
2019-01-14T08:37:54.792Z,5.50
2019-01-14T08:40:25.157Z,5.58
2019-01-14T08:42:54.287Z,5.53
2019-01-14T08:45:23.358Z,5.67
2019-01-14T08:47:52.431Z,5.57
2019-01-14T08:50:21.960Z,5.60
2019-01-14T08:52:51.848Z,5.84
2019-01-14T08:55:21.405Z,5.79
2019-01-14T08:57:54.751Z,5.74
2019-01-14T09:00:27.018Z,5.74
2019-01-14T09:02:56.076Z,5.74
2019-01-14T09:05:25.158Z,5.61
2019-01-14T09:07:54.238Z,5.63
2019-01-14T09:10:26.926Z,5.60
2019-01-14T09:12:56.038Z,5.73
2019-01-14T09:15:25.123Z,5.76
2019-01-14T09:18:02.667Z,5.71
2019-01-14T09:20:30.583Z,5.81
2019-01-14T09:23:00.080Z,5.94
2019-01-14T09:25:29.181Z,6.04
2019-01-14T09:27:58.462Z,6.03
2019-01-14T09:30:32.759Z,6.05
2019-01-14T09:33:01.752Z,6.03
2019-01-14T09:35:30.922Z,6.11
2019-01-14T09:38:00.066Z,6.19
2019-01-14T09:40:30.748Z,6.30
2019-01-14T09:42:59.835Z,6.39
2019-01-14T09:45:31.046Z,6.78
2019-01-14T09:48:00.104Z,6.77
2019-01-14T09:50:29.511Z,6.83
2019-01-14T09:52:58.714Z,6.87
2019-01-14T09:55:27.828Z,6.90
2019-01-14T09:57:56.891Z,7.16
2019-01-14T10:00:28.278Z,6.86
2019-01-14T10:02:58.187Z,7.06
2019-01-14T10:05:28.266Z,6.96
2019-01-14T10:07:57.565Z,6.90
2019-01-14T10:10:28.090Z,6.77
2019-01-14T10:12:57.199Z,6.70
2019-01-14T10:15:28.014Z,6.65
2019-01-14T10:18:02.434Z,6.54
2019-01-14T10:20:32.719Z,6.47
2019-01-14T10:23:01.814Z,6.45
2019-01-14T10:25:31.230Z,6.48
2019-01-14T10:28:00.539Z,6.39
2019-01-14T10:30:33.452Z,6.54
2019-01-14T10:33:02.608Z,6.64
2019-01-14T10:35:31.855Z,6.57
2019-01-14T10:38:04.316Z,6.95
2019-01-14T10:40:34.607Z,6.61
2019-01-14T10:43:03.780Z,6.56
2019-01-14T10:45:33.217Z,6.19
2019-01-14T10:48:02.286Z,6.19
2019-01-14T10:50:33.399Z,6.32
2019-01-14T10:53:03.611Z,6.43
2019-01-14T10:55:34.991Z,6.38
2019-01-14T10:58:07.614Z,6.41
2019-01-14T11:00:41.860Z,6.24
2019-01-14T11:03:13.354Z,6.40
2019-01-14T11:05:42.409Z,6.64
2019-01-14T11:08:11.528Z,6.64
2019-01-14T11:10:41.988Z,6.74
2019-01-14T11:13:13.108Z,6.51
2019-01-14T11:15:42.192Z,6.49
2019-01-14T11:18:11.314Z,6.49
2019-01-14T11:20:42.153Z,6.58
2019-01-14T11:23:11.335Z,6.57
2019-01-14T11:25:40.319Z,6.64
2019-01-14T11:28:09.590Z,6.75
2019-01-14T11:30:38.630Z,6.11
2019-01-14T11:33:07.735Z,6.62
2019-01-14T11:35:38.390Z,6.75
2019-01-14T11:38:09.129Z,6.81
2019-01-14T11:40:44.468Z,6.77
2019-01-14T11:43:13.661Z,6.77
2019-01-14T11:45:43.734Z,6.88
2019-01-14T11:48:12.832Z,6.97
2019-01-14T11:50:42.864Z,7.13
2019-01-14T11:53:12.016Z,7.01
2019-01-14T11:55:41.262Z,7.26
2019-01-14T11:58:10.439Z,7.31
2019-01-14T12:00:41.312Z,7.53
2019-01-14T12:03:12.463Z,7.80
2019-01-14T12:05:41.543Z,7.62
2019-01-14T12:08:11.683Z,7.38
2019-01-14T12:10:42.164Z,7.17
2019-01-14T12:13:11.387Z,7.11
2019-01-14T12:15:41.329Z,7.10
2019-01-14T12:18:10.467Z,7.12
2019-01-14T12:20:39.567Z,7.00
2019-01-14T12:23:08.654Z,5.92
2019-01-14T12:25:39.210Z,4.60
2019-01-14T12:28:08.293Z,2.86
2019-01-14T12:30:38.756Z,2.47
2019-01-14T12:33:07.794Z,2.33
2019-01-14T12:35:36.879Z,2.36
2019-01-14T12:38:06.479Z,2.40
2019-01-14T12:40:35.550Z,2.65
2019-01-14T12:43:06.833Z,2.80
2019-01-14T12:45:36.016Z,3.22
2019-01-14T12:48:05.059Z,3.26
2019-01-14T12:50:34.125Z,3.33
2019-01-14T12:53:03.199Z,3.36
2019-01-14T12:55:32.281Z,3.57
2019-01-14T12:58:01.313Z,3.77
2019-01-14T13:00:31.054Z,3.78
2019-01-14T13:03:00.089Z,3.91
2019-01-14T13:05:31.205Z,4.20
2019-01-14T13:08:00.257Z,4.24
2019-01-14T13:10:29.368Z,4.40
2019-01-14T13:12:58.527Z,4.68
2019-01-14T13:15:28.543Z,4.89
2019-01-14T13:17:57.601Z,4.68
2019-01-14T13:20:26.703Z,4.69
2019-01-14T13:22:55.949Z,4.93
2019-01-14T13:25:25.126Z,4.83
2019-01-14T13:27:54.211Z,4.90
2019-01-14T13:30:25.406Z,4.97
2019-01-14T13:32:54.463Z,4.92
2019-01-14T13:35:23.539Z,5.01
2019-01-14T13:37:52.739Z,5.07
2019-01-14T13:40:21.749Z,5.10
2019-01-14T13:42:50.727Z,5.52
2019-01-14T13:45:20.629Z,5.69
2019-01-14T13:47:49.689Z,5.55
2019-01-14T13:50:21.141Z,5.57
2019-01-14T13:52:50.218Z,5.48
2019-01-14T13:55:19.269Z,5.61
2019-01-14T13:57:48.277Z,5.63
2019-01-14T14:00:19.437Z,5.40
2019-01-14T14:02:48.521Z,5.27
2019-01-14T14:05:17.645Z,5.42
2019-01-14T14:07:46.648Z,5.60
2019-01-14T14:10:21.022Z,5.85
2019-01-14T14:12:50.212Z,6.07
2019-01-14T14:15:19.692Z,6.13
2019-01-14T14:17:48.812Z,5.73
2019-01-14T14:20:18.903Z,5.96
2019-01-14T14:22:48.026Z,5.96
2019-01-14T14:25:18.877Z,5.77
2019-01-14T14:27:48.238Z,5.80
2019-01-14T14:30:43.479Z,5.90
2019-01-14T14:33:13.434Z,5.95
2019-01-14T14:35:43.094Z,5.88
2019-01-14T14:38:12.522Z,5.84
2019-01-14T14:40:43.352Z,5.69
2019-01-14T14:43:13.014Z,5.82
2019-01-14T14:45:42.475Z,5.86
2019-01-14T14:48:11.914Z,5.96
2019-01-14T14:50:41.381Z,6.11
2019-01-14T14:53:12.281Z,5.88
2019-01-14T14:55:41.877Z,5.81
2019-01-14T14:58:12.996Z,5.75
2019-01-14T15:00:45.404Z,5.55
2019-01-14T15:03:14.790Z,5.59
2019-01-14T15:05:44.002Z,5.60
2019-01-14T15:08:15.701Z,5.70
2019-01-14T15:10:47.916Z,5.55
2019-01-14T15:13:17.010Z,5.47
2019-01-14T15:15:46.352Z,5.62
2019-01-14T15:18:17.687Z,5.53
2019-01-14T15:20:48.722Z,5.74
2019-01-14T15:23:17.772Z,5.75
2019-01-14T15:25:46.908Z,5.95
2019-01-14T15:28:16.126Z,5.72
2019-01-14T15:30:45.266Z,5.25
2019-01-14T15:33:14.560Z,5.65
2019-01-14T15:35:43.906Z,5.66
2019-01-14T15:38:13.027Z,5.65
2019-01-14T15:40:42.400Z,5.64
2019-01-14T15:43:11.461Z,5.71
2019-01-14T15:45:40.429Z,5.64
2019-01-14T15:48:09.560Z,5.64
2019-01-14T15:50:38.674Z,5.73
2019-01-14T15:53:07.740Z,5.59
2019-01-14T15:55:39.231Z,5.56
2019-01-14T15:58:09.165Z,5.81
2019-01-14T16:00:38.250Z,5.68
2019-01-14T16:03:09.419Z,5.58
2019-01-14T16:05:38.668Z,5.68
2019-01-14T16:08:12.327Z,5.60
2019-01-14T16:10:42.504Z,5.41
2019-01-14T16:13:11.606Z,5.17
2019-01-14T16:15:41.736Z,4.98
2019-01-14T16:18:10.934Z,4.94
2019-01-14T16:20:39.981Z,4.87
2019-01-14T16:23:11.133Z,4.83
2019-01-14T16:25:40.195Z,4.74
2019-01-14T16:28:09.311Z,4.89
2019-01-14T16:30:38.408Z,4.74
2019-01-14T16:33:07.474Z,4.94
2019-01-14T16:35:36.557Z,5.09
2019-01-14T16:38:05.716Z,5.09
2019-01-14T16:40:35.502Z,5.03
2019-01-14T16:43:04.655Z,4.82
2019-01-14T16:45:33.747Z,4.95
2019-01-14T16:48:02.806Z,4.56
2019-01-14T16:50:34.522Z,4.58
2019-01-14T16:53:05.904Z,4.53
2019-01-14T16:55:42.716Z,4.68
2019-01-14T16:58:11.834Z,4.65
2019-01-14T17:00:42.025Z,4.60
2019-01-14T17:03:11.123Z,4.57
2019-01-14T17:05:40.202Z,4.55
2019-01-14T17:08:09.222Z,4.56
2019-01-14T17:10:38.278Z,4.55
2019-01-14T17:13:07.340Z,4.55
2019-01-14T17:15:36.478Z,4.48
2019-01-14T17:18:05.591Z,4.33
2019-01-14T17:20:34.714Z,4.36
2019-01-14T17:23:03.773Z,4.26
2019-01-14T17:25:33.952Z,4.33
2019-01-14T17:28:03.051Z,4.47
2019-01-14T17:30:32.186Z,4.56
2019-01-14T17:33:01.212Z,4.53
2019-01-14T17:35:30.562Z,4.61
2019-01-14T17:37:59.686Z,4.66
2019-01-14T17:40:32.732Z,4.48
2019-01-14T17:42:59.534Z,4.49
2019-01-14T17:45:28.621Z,4.59
2019-01-14T17:47:57.637Z,4.72
2019-01-14T17:50:26.682Z,4.61
2019-01-14T17:52:55.720Z,4.52
2019-01-14T17:55:24.890Z,4.53
2019-01-14T17:57:54.458Z,4.41
2019-01-14T18:00:26.862Z,4.17
2019-01-14T18:02:55.886Z,4.18
2019-01-14T18:05:24.983Z,4.14
2019-01-14T18:07:54.163Z,3.99
2019-01-14T18:10:23.275Z,4.09
2019-01-14T18:12:52.321Z,4.19
2019-01-14T18:15:21.536Z,4.29
2019-01-14T18:17:50.611Z,4.34
2019-01-14T18:20:20.622Z,4.36
2019-01-14T18:22:49.649Z,4.40
2019-01-14T18:25:18.766Z,4.32
2019-01-14T18:27:47.768Z,4.34
2019-01-14T18:30:18.550Z,4.37
2019-01-14T18:32:47.617Z,4.26
2019-01-14T18:35:17.178Z,4.26
2019-01-14T18:37:46.327Z,4.28
2019-01-14T18:40:16.377Z,4.21
2019-01-14T18:42:45.661Z,4.20
2019-01-14T18:45:15.732Z,4.06
2019-01-14T18:47:44.820Z,4.15
2019-01-14T18:50:21.216Z,4.18
2019-01-14T18:52:50.320Z,4.19
2019-01-14T18:55:19.352Z,4.25
2019-01-14T18:57:48.645Z,4.23
2019-01-14T19:00:19.482Z,4.29
2019-01-14T19:02:48.563Z,4.31
2019-01-14T19:05:20.164Z,4.27
2019-01-14T19:07:49.715Z,4.23
2019-01-14T19:10:18.857Z,4.36
2019-01-14T19:12:47.967Z,4.32
2019-01-14T19:15:18.746Z,4.34
2019-01-14T19:17:47.986Z,4.20
2019-01-14T19:20:22.519Z,4.28
2019-01-14T19:22:52.972Z,4.25
2019-01-14T19:25:24.273Z,4.26
2019-01-14T19:27:53.356Z,4.27
2019-01-14T19:30:22.558Z,4.15
2019-01-14T19:32:53.703Z,4.12
2019-01-14T19:35:22.776Z,4.23
2019-01-14T19:37:51.895Z,3.58
2019-01-14T19:40:21.287Z,4.31
2019-01-14T19:42:50.458Z,4.26
2019-01-14T19:45:20.432Z,4.21
2019-01-14T19:47:49.594Z,4.26
2019-01-14T19:50:23.234Z,4.18
2019-01-14T19:52:52.656Z,3.55
2019-01-14T19:55:21.791Z,4.16
2019-01-14T19:57:50.958Z,4.23
2019-01-14T20:00:22.791Z,4.11
2019-01-14T20:02:51.925Z,4.25
2019-01-14T20:05:21.031Z,4.16
2019-01-14T20:07:52.856Z,4.16
2019-01-14T20:10:21.978Z,4.31
2019-01-14T20:12:51.173Z,4.11
2019-01-14T20:15:20.695Z,4.17
2019-01-14T20:17:49.836Z,4.11
2019-01-14T20:20:18.987Z,3.86
2019-01-14T20:22:48.640Z,3.95
2019-01-14T20:25:17.733Z,3.72
2019-01-14T20:27:46.782Z,3.68
2019-01-14T20:30:20.670Z,3.82
2019-01-14T20:32:53.744Z,3.72
2019-01-14T20:35:22.799Z,3.62
2019-01-14T20:37:51.869Z,3.61
2019-01-14T20:40:21.240Z,3.58
2019-01-14T20:42:51.825Z,3.57
2019-01-14T20:45:20.919Z,3.39
2019-01-14T20:47:50.073Z,3.59
2019-01-14T20:50:20.322Z,3.58
2019-01-14T20:52:49.387Z,3.69
2019-01-14T20:55:18.508Z,3.43
2019-01-14T20:57:47.608Z,3.43
2019-01-14T21:00:19.084Z,3.45
2019-01-14T21:02:48.160Z,3.43
2019-01-14T21:05:18.023Z,3.40
2019-01-14T21:07:47.055Z,3.55
2019-01-14T21:10:21.543Z,3.44
2019-01-14T21:12:53.336Z,3.44
2019-01-14T21:15:24.814Z,3.35
2019-01-14T21:17:53.909Z,3.32
2019-01-14T21:20:24.594Z,3.14
2019-01-14T21:22:55.670Z,3.22
2019-01-14T21:25:24.942Z,3.00
2019-01-14T21:27:58.818Z,2.82
2019-01-14T21:30:28.260Z,2.80
2019-01-14T21:32:58.578Z,2.70
2019-01-14T21:35:27.740Z,2.96
2019-01-14T21:37:58.612Z,2.78
2019-01-14T21:40:27.966Z,2.85
2019-01-14T21:42:57.023Z,2.93
2019-01-14T21:45:28.406Z,2.94
2019-01-14T21:47:57.513Z,2.75
2019-01-14T21:50:26.534Z,2.80
2019-01-14T21:52:55.594Z,2.79
2019-01-14T21:55:26.170Z,2.95
2019-01-14T21:57:55.315Z,3.01
2019-01-14T22:00:27.375Z,3.06
2019-01-14T22:02:56.476Z,3.07
2019-01-14T22:05:25.637Z,3.37
2019-01-14T22:07:54.861Z,3.52
2019-01-14T22:10:29.523Z,3.40
2019-01-14T22:13:01.683Z,3.26
2019-01-14T22:15:30.763Z,3.25
2019-01-14T22:17:59.923Z,3.29
2019-01-14T22:20:29.962Z,3.24
2019-01-14T22:23:00.146Z,3.04
2019-01-14T22:25:29.161Z,2.98
2019-01-14T22:27:58.200Z,2.98
2019-01-14T22:30:29.880Z,3.02
2019-01-14T22:32:58.992Z,3.07
2019-01-14T22:35:28.140Z,2.97
2019-01-14T22:37:57.196Z,3.01
2019-01-14T22:40:26.354Z,3.07
2019-01-14T22:42:55.450Z,2.73
2019-01-14T22:45:24.466Z,2.93
2019-01-14T22:47:53.839Z,2.89
2019-01-14T22:50:24.009Z,3.11
2019-01-14T22:52:53.105Z,3.03
2019-01-14T22:55:22.151Z,2.97
2019-01-14T22:57:51.369Z,3.07
2019-01-14T23:00:57.772Z,2.94
2019-01-14T23:03:26.891Z,3.00
2019-01-14T23:06:00.154Z,3.03
2019-01-14T23:08:29.278Z,3.14
2019-01-14T23:10:58.316Z,3.06
2019-01-14T23:13:27.334Z,3.02
2019-01-14T23:15:56.419Z,3.09
2019-01-14T23:18:25.549Z,3.04
2019-01-14T23:20:54.706Z,3.00
2019-01-14T23:23:23.808Z,3.25
2019-01-14T23:25:52.855Z,3.23
2019-01-14T23:28:23.783Z,3.29
2019-01-14T23:30:52.838Z,3.39
2019-01-14T23:33:21.964Z,3.27
2019-01-14T23:35:51.203Z,3.30
2019-01-14T23:38:20.275Z,3.31
2019-01-14T23:40:51.497Z,3.45
2019-01-14T23:43:20.570Z,3.44
2019-01-14T23:45:49.839Z,3.56
2019-01-14T23:48:19.015Z,3.34
2019-01-14T23:50:51.436Z,3.56
2019-01-14T23:53:20.503Z,3.28
2019-01-14T23:55:49.590Z,3.28
2019-01-14T23:58:18.655Z,3.29
